Time;durP1;ratioP1;P1;durP2;ratioP2;P2;SDS_P1;SDS_P2;PMS_P1;PMS_P2;Temp;Humidity;BMP_temperature;BMP_pressure;BME280_temperature;BME280_humidity;BME280_pressure;Samples;Min_cycle;Max_cycle;Signal;HPM_P1;HPM_P2
2021/12/24 00:00:22;;;;;;;40.92;20.15;;;;;;;6.32;100.00;100413.75;5099701;28;20026;-74
2021/12/24 00:02:49;;;;;;;39.53;19.17;;;;;;;6.35;100.00;100416.84;5098810;28;20074;-73
2021/12/24 00:05:15;;;;;;;39.47;19.65;;;;;;;6.36;100.00;100409.72;5099224;28;20024;-73
2021/12/24 00:07:40;;;;;;;42.78;21.77;;;;;;;6.36;100.00;100401.78;5097707;28;20411;-74
2021/12/24 00:10:08;;;;;;;36.00;20.23;;;;;;;6.34;100.00;100396.69;5099383;28;20059;-74
2021/12/24 00:12:36;;;;;;;41.92;19.45;;;;;;;6.38;100.00;100407.72;5099578;28;20024;-74
2021/12/24 00:15:14;;;;;;;40.05;18.70;;;;;;;6.40;100.00;100399.63;5099598;28;20177;-74
2021/12/24 00:17:39;;;;;;;37.22;19.25;;;;;;;6.41;100.00;100404.72;5099455;28;20103;-73
2021/12/24 00:36:10;;;;;;;34.97;18.25;;;;;;;6.48;100.00;100384.44;5098782;28;20067;-73
2021/12/24 00:38:35;;;;;;;37.08;17.35;;;;;;;6.54;100.00;100394.31;5098525;28;20103;-74
2021/12/24 00:41:00;;;;;;;35.75;18.23;;;;;;;6.55;100.00;100389.88;5099426;28;20082;-73
2021/12/24 00:43:26;;;;;;;32.45;17.70;;;;;;;6.51;100.00;100381.44;5099068;28;20111;-73
2021/12/24 00:45:51;;;;;;;32.83;17.27;;;;;;;6.54;100.00;100388.19;5099272;28;20032;-73
2021/12/24 00:48:19;;;;;;;30.90;16.80;;;;;;;6.55;100.00;100381.91;5099324;28;20130;-73
2021/12/24 00:51:06;;;;;;;31.98;16.52;;;;;;;6.56;100.00;100375.59;5099234;28;20020;-73
2021/12/24 00:55:58;;;;;;;36.53;17.58;;;;;;;6.57;100.00;100375.41;5099348;28;20084;-73
2021/12/24 00:58:24;;;;;;;29.45;17.30;;;;;;;6.62;100.00;100379.34;5098505;28;20071;-73
2021/12/24 01:00:49;;;;;;;30.42;15.90;;;;;;;6.59;100.00;100369.94;5095787;28;20039;-74
2021/12/24 01:03:15;;;;;;;32.17;17.52;;;;;;;6.64;100.00;100377.34;5096203;28;20371;-73
2021/12/24 01:05:41;;;;;;;35.75;18.35;;;;;;;6.65;100.00;100376.31;5094406;28;20535;-74
2021/12/24 01:08:08;;;;;;;38.80;21.15;;;;;;;6.66;100.00;100370.84;5095337;28;20157;-74
2021/12/24 01:10:57;;;;;;;34.72;19.23;;;;;;;6.69;100.00;100372.31;5095102;28;20039;-74
2021/12/24 01:13:27;;;;;;;38.50;20.55;;;;;;;6.71;100.00;100365.84;5095338;28;20032;-73
2021/12/24 01:16:08;;;;;;;36.25;20.30;;;;;;;6.73;100.00;100370.94;5095730;28;20020;-74
2021/12/24 01:18:55;;;;;;;35.47;19.13;;;;;;;6.73;100.00;100362.97;5095731;28;20024;-73
2021/12/24 01:21:52;;;;;;;33.38;16.60;;;;;;;6.74;100.00;100370.75;5095616;28;20028;-73
2021/12/24 01:24:21;;;;;;;35.03;19.98;;;;;;;6.75;100.00;100364.44;5095213;28;20036;-73
2021/12/24 01:40:37;;;;;;;32.95;16.75;;;;;;;6.80;100.00;100353.28;5094296;28;20101;-73
2021/12/24 01:43:02;;;;;;;32.72;18.92;;;;;;;6.84;100.00;100362.53;5095173;28;20016;-73
2021/12/24 01:45:31;;;;;;;32.55;18.35;;;;;;;6.86;100.00;100357.03;5095019;28;20039;-73
2021/12/24 01:47:59;;;;;;;32.85;18.65;;;;;;;6.87;100.00;100364.00;5095001;28;20023;-73
2021/12/24 01:50:27;;;;;;;34.42;20.52;;;;;;;6.90;100.00;100363.63;5094995;28;20456;-73
2021/12/24 01:52:55;;;;;;;35.58;18.85;;;;;;;6.91;100.00;100368.72;5094816;28;20055;-73
2021/12/24 01:55:21;;;;;;;37.65;18.75;;;;;;;6.94;100.00;100367.53;5094922;28;20044;-73
2021/12/24 01:57:47;;;;;;;42.90;22.38;;;;;;;6.98;100.00;100356.38;5094881;28;20024;-73
2021/12/24 02:00:20;;;;;;;44.55;22.48;;;;;;;7.00;100.00;100357.03;5094499;28;20028;-73
2021/12/24 02:02:46;;;;;;;42.50;20.00;;;;;;;7.01;100.00;100366.59;5093590;28;20031;-73
2021/12/24 02:05:12;;;;;;;44.08;23.60;;;;;;;7.05;100.00;100364.44;5094249;28;20376;-74
2021/12/24 02:07:38;;;;;;;45.50;21.38;;;;;;;7.07;100.00;100359.75;5094608;28;20485;-73
2021/12/24 02:10:06;;;;;;;46.03;24.92;;;;;;;7.06;100.00;100349.34;5094498;28;20062;-74
2021/12/24 02:12:34;;;;;;;50.85;24.25;;;;;;;7.14;100.00;100349.22;5093752;28;20020;-74
2021/12/24 02:15:00;;;;;;;49.72;22.98;;;;;;;7.16;100.00;100363.13;5094513;28;20027;-73
2021/12/24 02:18:00;;;;;;;43.75;24.08;;;;;;;7.18;100.00;100351.31;5093206;28;20035;-73
2021/12/24 02:28:41;;;;;;;47.42;26.65;;;;;;;7.25;100.00;100346.88;5092804;28;20403;-73
2021/12/24 02:31:12;;;;;;;48.47;23.92;;;;;;;7.29;100.00;100360.63;5092682;28;20036;-73
2021/12/24 02:33:38;;;;;;;50.95;26.02;;;;;;;7.31;100.00;100353.31;5094104;28;20028;-73
2021/12/24 02:36:05;;;;;;;49.50;24.75;;;;;;;7.32;100.00;100352.28;5094061;28;20023;-73
2021/12/24 02:38:31;;;;;;;43.47;22.73;;;;;;;7.33;100.00;100359.22;5094011;28;20471;-74
2021/12/24 02:40:57;;;;;;;42.95;23.20;;;;;;;7.34;100.00;100352.09;5094020;28;20027;-74
2021/12/24 02:43:24;;;;;;;48.40;26.45;;;;;;;7.35;100.00;100343.94;5094023;28;20028;-74
2021/12/24 02:45:53;;;;;;;41.55;25.58;;;;;;;7.38;100.00;100348.06;5093885;28;20085;-73
2021/12/24 02:56:24;;;;;;;44.80;23.92;;;;;;;7.34;100.00;100322.94;5093683;28;20032;-73
2021/12/24 02:58:50;;;;;;;46.78;23.70;;;;;;;7.44;100.00;100329.56;5093561;28;20016;-73
2021/12/24 03:01:19;;;;;;;48.47;26.38;;;;;;;7.49;100.00;100330.81;5093498;28;20078;-74
2021/12/24 03:03:48;;;;;;;51.22;25.70;;;;;;;7.48;100.00;100327.34;5092734;28;20116;-73
2021/12/24 03:06:15;;;;;;;54.47;27.90;;;;;;;7.53;100.00;100326.78;5093226;28;20032;-74
2021/12/24 03:08:40;;;;;;;49.50;25.38;;;;;;;7.53;100.00;100324.94;5091881;28;20056;-73
2021/12/24 03:11:06;;;;;;;56.60;27.40;;;;;;;7.54;100.00;100326.56;5093492;28;20051;-73
2021/12/24 03:13:33;;;;;;;50.42;24.73;;;;;;;7.55;100.00;100322.94;5092908;28;20467;-74
2021/12/24 03:15:59;;;;;;;54.20;28.95;;;;;;;7.57;100.00;100323.56;5093372;28;20028;-73
2021/12/24 03:18:28;;;;;;;52.95;26.58;;;;;;;7.59;100.00;100329.47;5091231;28;20028;-74
2021/12/24 03:21:04;;;;;;;50.67;26.90;;;;;;;7.60;100.00;100325.03;5092912;28;20031;-74
2021/12/24 03:23:36;;;;;;;51.28;24.33;;;;;;;7.61;100.00;100324.00;5092836;28;20027;-74
2021/12/24 03:26:03;;;;;;;56.17;28.40;;;;;;;7.62;100.00;100328.28;5093183;28;20056;-73
2021/12/24 03:28:28;;;;;;;49.33;26.38;;;;;;;7.61;100.00;100330.13;5092014;28;20032;-73
2021/12/24 03:30:54;;;;;;;55.13;29.15;;;;;;;7.63;100.00;100329.94;5093148;28;20093;-73
2021/12/24 03:33:20;;;;;;;58.58;31.20;;;;;;;7.64;100.00;100331.56;5093420;28;20036;-73
2021/12/24 03:35:45;;;;;;;55.33;27.60;;;;;;;7.66;100.00;100341.00;5093157;28;20461;-73
2021/12/24 03:38:10;;;;;;;54.65;28.38;;;;;;;7.69;100.00;100343.25;5093174;28;20457;-74
2021/12/24 03:40:36;;;;;;;52.75;27.35;;;;;;;7.71;100.00;100350.22;5093114;28;20032;-73
2021/12/24 03:43:01;;;;;;;52.45;27.80;;;;;;;7.71;100.00;100356.34;5093024;28;20028;-73
2021/12/24 03:45:44;;;;;;;54.88;27.70;;;;;;;7.74;100.00;100350.66;5093011;28;20072;-74
2021/12/24 03:48:24;;;;;;;49.15;24.50;;;;;;;7.75;100.00;100348.81;5092920;28;20027;-74
2021/12/24 03:51:04;;;;;;;51.30;24.60;;;;;;;7.79;100.00;100337.63;5092998;28;20030;-74
2021/12/24 03:56:15;;;;;;;48.97;25.45;;;;;;;7.80;100.00;100349.06;5092353;28;20062;-73
2021/12/24 03:58:41;;;;;;;49.40;24.23;;;;;;;7.79;100.00;100350.91;5092743;28;20028;-74
2021/12/24 04:01:07;;;;;;;46.20;23.98;;;;;;;7.81;100.00;100348.06;5093016;28;20107;-74
2021/12/24 04:03:32;;;;;;;45.55;24.83;;;;;;;7.81;100.00;100346.25;5093115;28;20055;-73
2021/12/24 04:05:58;;;;;;;46.85;21.95;;;;;;;7.79;100.00;100345.59;5092044;28;20036;-73
2021/12/24 04:08:23;;;;;;;49.25;23.80;;;;;;;7.82;100.00;100347.06;5091344;28;20537;-73
2021/12/24 04:10:49;;;;;;;47.47;22.13;;;;;;;7.80;100.00;100341.09;5092481;28;20070;-74
2021/12/24 04:13:15;;;;;;;42.15;22.48;;;;;;;7.85;100.00;100346.66;5092724;28;20016;-74
2021/12/24 04:15:41;;;;;;;44.45;21.00;;;;;;;7.88;100.00;100347.09;5092340;28;20516;-73
2021/12/24 04:18:14;;;;;;;36.70;19.25;;;;;;;7.89;100.00;100345.28;5092742;28;20032;-73
2021/12/24 04:26:08;;;;;;;39.20;16.77;;;;;;;7.84;100.00;100345.84;5092402;28;20055;-73
2021/12/24 04:28:34;;;;;;;30.55;15.85;;;;;;;7.85;100.00;100355.44;5091574;28;20479;-74
2021/12/24 04:31:01;;;;;;;38.15;15.07;;;;;;;7.87;100.00;100360.56;5092650;28;20039;-74
2021/12/24 04:33:34;;;;;;;31.77;14.40;;;;;;;7.86;100.00;100351.78;5092578;28;20032;-73
2021/12/24 04:36:20;;;;;;;32.10;14.65;;;;;;;7.85;100.00;100344.00;5094541;28;20471;-73
2021/12/24 04:39:26;;;;;;;34.75;15.70;;;;;;;7.88;100.00;100356.91;5096239;28;20044;-73
2021/12/24 05:01:19;;;;;;;25.00;12.25;;;;;;;8.02;100.00;100345.38;5095881;28;20032;-73
2021/12/24 05:03:46;;;;;;;28.63;10.15;;;;;;;8.01;100.00;100335.75;5094952;28;20034;-73
2021/12/24 05:08:51;;;;;;;30.05;10.20;;;;;;;8.01;100.00;100338.41;5095320;28;20032;-74
2021/12/24 05:11:19;;;;;;;25.02;10.50;;;;;;;8.02;100.00;100344.56;5095175;28;20054;-74
2021/12/24 05:13:44;;;;;;;24.27;11.18;;;;;;;8.00;100.00;100342.09;5095718;28;20027;-73
2021/12/24 05:21:33;;;;;;;21.42;9.55;;;;;;;7.97;100.00;100336.34;5095763;28;20060;-73
2021/12/24 05:24:18;;;;;;;23.65;10.25;;;;;;;8.02;100.00;100340.06;5095507;28;20036;-74
2021/12/24 05:26:50;;;;;;;21.23;9.23;;;;;;;8.01;100.00;100342.91;5093956;28;20028;-73
2021/12/24 05:29:15;;;;;;;;;;;;;;;8.03;100.00;100356.81;5095852;28;20027;-74
2021/12/24 05:31:42;;;;;;;22.58;8.18;;;;;;;7.98;100.00;100352.09;5095441;28;19908;-73
2021/12/24 05:34:07;;;;;;;28.75;9.20;;;;;;;7.96;100.00;100351.44;5095292;28;20050;-73
2021/12/24 05:36:33;;;;;;;18.52;7.80;;;;;;;7.97;100.00;100363.72;5095328;28;20053;-74
2021/12/24 05:38:59;;;;;;;19.40;7.72;;;;;;;7.94;100.00;100358.81;5095229;28;20035;-74
2021/12/24 05:41:25;;;;;;;23.23;8.80;;;;;;;7.96;100.00;100369.22;5093911;28;20061;-74
2021/12/24 05:43:51;;;;;;;25.92;8.13;;;;;;;7.97;100.00;100368.22;5095219;28;20059;-74
2021/12/24 05:46:17;;;;;;;31.40;9.82;;;;;;;7.98;100.00;100367.19;5094587;28;20036;-74
2021/12/24 05:48:42;;;;;;;21.88;9.57;;;;;;;7.94;100.00;100364.13;5095052;28;20024;-74
2021/12/24 05:51:10;;;;;;;25.17;9.23;;;;;;;7.96;100.00;100369.22;5094999;28;20540;-74
2021/12/24 05:53:38;;;;;;;20.67;9.80;;;;;;;7.93;100.00;100367.78;5094860;28;20052;-73
2021/12/24 05:56:04;;;;;;;26.17;9.25;;;;;;;7.95;100.00;100371.06;5094961;28;20036;-74
2021/12/24 05:58:30;;;;;;;21.70;9.85;;;;;;;7.93;100.00;100373.06;5093618;28;20388;-74
2021/12/24 06:00:55;;;;;;;26.05;9.57;;;;;;;7.95;100.00;100370.25;5094833;28;20028;-74
2021/12/24 06:03:21;;;;;;;22.92;10.05;;;;;;;7.94;100.00;100371.25;5095152;28;20103;-74
2021/12/24 06:05:47;;;;;;;29.15;8.40;;;;;;;7.93;100.00;100375.72;5093324;28;20043;-74
2021/12/24 06:08:12;;;;;;;24.13;9.30;;;;;;;7.92;100.00;100374.09;5094505;28;20024;-74
2021/12/24 06:10:39;;;;;;;21.88;9.20;;;;;;;7.89;100.00;100377.97;5094087;28;20019;-73
2021/12/24 06:13:05;;;;;;;24.35;9.25;;;;;;;7.93;100.00;100377.56;5094667;28;20474;-73
2021/12/24 06:15:40;;;;;;;21.33;8.45;;;;;;;7.90;100.00;100378.78;5094553;28;20035;-73
2021/12/24 06:18:12;;;;;;;25.80;8.75;;;;;;;7.88;100.00;100375.47;5094380;28;20030;-73
2021/12/24 06:20:40;;;;;;;23.70;8.73;;;;;;;7.88;100.00;100380.78;5094150;28;20109;-73
2021/12/24 06:23:07;;;;;;;23.85;8.00;;;;;;;7.87;100.00;100385.28;5094425;28;20379;-73
2021/12/24 06:25:33;;;;;;;18.58;8.02;;;;;;;7.87;100.00;100379.16;5094221;28;20035;-73
2021/12/24 06:27:58;;;;;;;21.75;7.93;;;;;;;7.86;100.00;100388.16;5094277;28;20024;-73
2021/12/24 06:30:27;;;;;;;18.42;8.85;;;;;;;7.85;100.00;100382.00;5093445;28;20024;-73
2021/12/24 06:32:52;;;;;;;33.42;10.10;;;;;;;7.85;100.00;100376.69;5093757;28;20032;-74
2021/12/24 06:35:18;;;;;;;17.10;6.70;;;;;;;7.85;100.00;100378.53;5094305;28;20494;-74
2021/12/24 06:37:43;;;;;;;18.05;8.27;;;;;;;7.84;100.00;100379.53;5092926;28;20127;-73
2021/12/24 06:40:09;;;;;;;24.80;9.27;;;;;;;7.82;100.00;100376.25;5094172;28;20043;-73
2021/12/24 06:42:35;;;;;;;20.38;8.25;;;;;;;7.85;100.00;100378.53;5094081;28;20036;-74
2021/12/24 06:45:01;;;;;;;20.02;8.13;;;;;;;7.85;100.00;100379.34;5093668;28;20027;-74
2021/12/24 06:47:27;;;;;;;21.17;7.85;;;;;;;7.82;100.00;100381.56;5092753;28;20024;-74
2021/12/24 06:49:52;;;;;;;19.48;7.13;;;;;;;7.83;100.00;100377.88;5093910;28;20047;-73
2021/12/24 06:52:17;;;;;;;20.58;8.02;;;;;;;7.81;100.00;100372.78;5093553;28;20063;-73
2021/12/24 06:54:43;;;;;;;20.08;7.10;;;;;;;7.81;100.00;100380.75;5093849;28;20046;-73
2021/12/24 06:57:14;;;;;;;19.20;8.35;;;;;;;7.82;100.00;100378.91;5093636;28;20035;-73
2021/12/24 06:59:40;;;;;;;19.52;6.90;;;;;;;7.80;100.00;100376.44;5093213;28;20051;-73
2021/12/24 07:02:05;;;;;;;21.80;8.48;;;;;;;7.81;100.00;100371.97;5093455;28;20036;-73
2021/12/24 07:04:30;;;;;;;26.73;8.18;;;;;;;7.80;100.00;100367.66;5093360;28;20036;-74
2021/12/24 07:06:56;;;;;;;22.80;7.57;;;;;;;7.80;100.00;100379.09;5093672;28;20629;-74
2021/12/24 07:09:22;;;;;;;21.00;7.57;;;;;;;7.79;100.00;100376.63;5092592;28;20535;-74
2021/12/24 07:11:48;;;;;;;26.50;10.27;;;;;;;7.79;100.00;100377.47;5092881;28;20035;-74
2021/12/24 07:14:14;;;;;;;19.83;7.97;;;;;;;7.75;100.00;100378.84;5093500;28;20032;-73
2021/12/24 07:16:39;;;;;;;20.90;7.78;;;;;;;7.80;100.00;100386.22;5093454;28;20049;-74
2021/12/24 07:19:05;;;;;;;23.23;7.72;;;;;;;7.80;100.00;100383.59;5093494;28;20024;-73
2021/12/24 07:21:30;;;;;;;18.85;8.00;;;;;;;7.79;100.00;100385.41;5092883;28;20028;-74
2021/12/24 07:23:55;;;;;;;25.00;9.05;;;;;;;7.74;100.00;100363.94;5093360;28;20387;-74
2021/12/24 07:26:21;;;;;;;19.05;7.00;;;;;;;7.77;100.00;100370.69;5093246;28;20030;-74
2021/12/24 07:28:47;;;;;;;19.85;7.50;;;;;;;7.73;100.00;100375.56;5093202;28;20092;-73
2021/12/24 07:31:13;;;;;;;22.00;8.15;;;;;;;7.77;100.00;100391.94;5075351;28;20037;-74
2021/12/24 07:33:38;;;;;;;27.25;7.28;;;;;;;7.77;100.00;100397.25;5070090;28;20050;-74
2021/12/24 07:36:04;;;;;;;21.50;7.25;;;;;;;7.72;100.00;100396.97;5069919;28;20028;-74
2021/12/24 07:38:29;;;;;;;22.45;8.68;;;;;;;7.77;100.00;100402.53;5071441;28;20035;-74
2021/12/24 07:40:55;;;;;;;17.92;6.82;;;;;;;7.74;100.00;100393.13;5069547;28;20082;-74
2021/12/24 07:43:20;;;;;;;21.83;8.38;;;;;;;7.74;100.00;100406.41;5069766;28;20029;-74
2021/12/24 07:45:46;;;;;;;20.70;7.25;;;;;;;7.76;100.00;100396.41;5068206;28;20032;-74
2021/12/24 07:48:15;;;;;;;22.33;7.97;;;;;;;7.76;100.00;100391.13;5085592;28;20028;-74
2021/12/24 07:53:12;;;;;;;21.83;10.25;;;;;;;7.73;100.00;100380.88;5069580;28;20064;-74
2021/12/24 07:55:39;;;;;;;26.02;8.85;;;;;;;7.76;100.00;100392.94;5088036;28;20040;-74
2021/12/24 07:58:07;;;;;;;25.63;8.48;;;;;;;7.74;100.00;100393.13;5072792;28;20041;-73
2021/12/24 08:00:35;;;;;;;20.90;7.60;;;;;;;7.76;100.00;100393.78;5069810;28;20025;-73
2021/12/24 08:03:03;;;;;;;23.60;9.70;;;;;;;7.77;100.00;100395.41;5086825;28;20109;-73
2021/12/24 08:05:31;;;;;;;25.60;10.23;;;;;;;7.77;100.00;100397.25;5088960;28;20067;-74
2021/12/24 08:07:56;;;;;;;22.98;9.38;;;;;;;7.78;100.00;100402.38;5071670;28;20070;-74
2021/12/24 08:10:24;;;;;;;18.95;8.10;;;;;;;7.78;100.00;100393.56;5072426;28;20442;-74
2021/12/24 08:12:51;;;;;;;22.75;9.20;;;;;;;7.79;100.00;100398.69;5071764;28;20056;-74
2021/12/24 08:15:17;;;;;;;18.58;8.68;;;;;;;7.81;100.00;100394.03;5087743;28;20066;-73
2021/12/24 08:17:44;;;;;;;26.83;8.75;;;;;;;7.82;100.00;100390.34;5093052;28;20069;-73
2021/12/24 08:20:11;;;;;;;22.67;8.57;;;;;;;7.82;100.00;100390.34;5093058;28;20036;-74
2021/12/24 08:22:37;;;;;;;25.52;7.93;;;;;;;7.83;100.00;100383.19;5092853;28;20410;-74
2021/12/24 08:25:05;;;;;;;21.73;7.97;;;;;;;7.84;100.00;100376.91;5092763;28;20028;-74
2021/12/24 08:27:31;;;;;;;22.13;6.85;;;;;;;7.84;100.00;100377.72;5092863;28;20475;-74
2021/12/24 08:29:57;;;;;;;25.65;8.73;;;;;;;7.85;100.00;100384.66;5091481;28;20024;-74
2021/12/24 08:32:23;;;;;;;19.40;8.70;;;;;;;7.88;100.00;100378.13;5058183;28;20455;-74
2021/12/24 08:34:51;;;;;;;20.50;7.18;;;;;;;7.87;100.00;100379.16;5076241;28;20054;-74
2021/12/24 08:37:17;;;;;;;23.40;6.32;;;;;;;7.88;100.00;100381.59;5075006;28;20111;-73
2021/12/24 08:39:42;;;;;;;21.92;6.68;;;;;;;7.92;100.00;100390.03;5075531;28;20066;-74
2021/12/24 08:42:08;;;;;;;24.63;7.72;;;;;;;7.90;100.00;100389.41;5075423;28;20036;-73
2021/12/24 08:44:35;;;;;;;28.67;7.43;;;;;;;7.96;100.00;100391.28;5076013;28;20391;-74
2021/12/24 08:47:02;;;;;;;18.90;6.82;;;;;;;7.97;100.00;100378.84;5075974;28;20035;-73
2021/12/24 08:49:28;;;;;;;18.42;7.60;;;;;;;7.95;100.00;100380.88;5074660;28;20020;-73
2021/12/24 08:51:55;;;;;;;23.55;8.23;;;;;;;7.97;100.00;100381.50;5075962;28;20028;-74
2021/12/24 08:54:21;;;;;;;25.95;9.73;;;;;;;7.93;100.00;100378.38;5075703;28;20502;-74
2021/12/24 08:56:50;;;;;;;20.35;7.53;;;;;;;7.93;100.00;100383.69;5075825;28;20329;-73
2021/12/24 08:59:16;;;;;;;23.42;8.73;;;;;;;7.96;100.00;100380.66;5075746;28;20091;-74
2021/12/24 09:01:45;;;;;;;26.88;9.65;;;;;;;7.97;100.00;100384.97;5075787;28;20052;-74
2021/12/24 09:04:12;;;;;;;20.38;8.82;;;;;;;7.96;100.00;100371.88;5075589;28;20388;-74
2021/12/24 09:06:38;;;;;;;21.25;8.75;;;;;;;8.01;100.00;100377.44;5075370;28;20028;-73
2021/12/24 09:09:06;;;;;;;24.00;8.75;;;;;;;8.01;100.00;100370.28;5075568;28;20039;-74
2021/12/24 09:11:34;;;;;;;27.38;8.85;;;;;;;8.03;100.00;100370.91;5074498;28;20654;-73
2021/12/24 09:14:00;;;;;;;22.30;8.63;;;;;;;8.05;100.00;100368.09;5075229;28;20039;-74
2021/12/24 09:16:25;;;;;;;25.40;9.48;;;;;;;7.99;100.00;100360.88;5075140;28;20025;-73
2021/12/24 09:18:59;;;;;;;24.35;7.65;;;;;;;8.06;100.00;100377.69;5075358;28;20028;-74
2021/12/24 09:21:24;;;;;;;22.75;8.35;;;;;;;8.08;100.00;100373.81;5074423;28;20028;-73
2021/12/24 09:23:50;;;;;;;22.52;8.80;;;;;;;8.09;100.00;100378.09;5075067;28;20486;-72
2021/12/24 09:26:23;;;;;;;26.95;8.82;;;;;;;8.09;100.00;100372.78;5075037;28;20036;-72
2021/12/24 09:28:48;;;;;;;23.15;8.10;;;;;;;8.06;100.00;100377.69;5075282;28;20479;-74
2021/12/24 09:31:14;;;;;;;19.27;6.80;;;;;;;8.07;100.00;100382.81;5075251;28;20040;-73
2021/12/24 09:33:39;;;;;;;23.63;9.35;;;;;;;8.06;100.00;100381.16;5075122;28;20119;-73
2021/12/24 09:36:05;;;;;;;28.90;13.00;;;;;;;8.05;100.00;100374.22;5075087;28;20028;-74
2021/12/24 09:38:30;;;;;;;18.77;7.78;;;;;;;8.02;100.00;100377.25;5075082;28;20116;-74
2021/12/24 09:40:55;;;;;;;21.50;7.78;;;;;;;8.04;100.00;100377.03;5074810;28;20032;-74
2021/12/24 09:43:24;;;;;;;17.77;7.20;;;;;;;8.03;100.00;100381.53;5075050;28;20020;-74
2021/12/24 09:45:49;;;;;;;26.83;10.10;;;;;;;8.04;100.00;100382.34;5074912;28;20025;-73
2021/12/24 09:48:15;;;;;;;22.70;8.07;;;;;;;8.05;100.00;100386.69;5074989;28;20439;-74
2021/12/24 09:50:40;;;;;;;22.35;8.25;;;;;;;8.04;100.00;100375.25;5074813;28;20074;-73
2021/12/24 09:53:05;;;;;;;24.20;7.75;;;;;;;8.06;100.00;100372.38;5072802;28;20098;-74
2021/12/24 09:55:31;;;;;;;23.42;9.85;;;;;;;8.04;100.00;100372.59;5072823;28;20028;-74
2021/12/24 09:57:56;;;;;;;21.50;7.45;;;;;;;8.08;100.00;100373.00;5073112;28;20036;-73
2021/12/24 10:00:24;;;;;;;26.13;7.88;;;;;;;8.11;100.00;100372.63;5074639;28;20074;-73
2021/12/24 10:02:52;;;;;;;18.10;6.65;;;;;;;8.09;100.00;100361.34;5074391;28;20036;-73
2021/12/24 10:05:33;;;;;;;25.25;7.60;;;;;;;8.13;100.00;100365.28;5074274;28;20109;-73
2021/12/24 10:08:14;;;;;;;26.90;8.70;;;;;;;8.13;100.00;100352.00;5074271;28;20056;-73
2021/12/24 10:10:42;;;;;;;24.13;7.60;;;;;;;8.13;100.00;100363.44;5074375;28;20046;-73
2021/12/24 10:13:23;;;;;;;20.92;8.68;;;;;;;8.16;100.00;100362.25;5074296;28;20099;-73
2021/12/24 10:16:01;;;;;;;19.03;7.07;;;;;;;8.12;100.00;100359.16;5074137;28;20506;-73
2021/12/24 10:18:42;;;;;;;22.08;8.48;;;;;;;8.16;100.00;100380.84;5072760;28;20028;-74
2021/12/24 10:21:14;;;;;;;22.05;8.07;;;;;;;8.16;100.00;100370.22;5074212;28;20067;-74
2021/12/24 10:23:45;;;;;;;26.08;8.85;;;;;;;8.18;100.00;100373.50;5074220;28;20529;-73
2021/12/24 10:26:26;;;;;;;22.73;7.68;;;;;;;8.18;100.00;100354.91;5073562;28;20025;-74
2021/12/24 10:29:02;;;;;;;18.17;7.13;;;;;;;8.27;100.00;100364.34;5073865;28;20028;-74
2021/12/24 10:31:51;;;;;;;21.83;7.25;;;;;;;8.31;100.00;100364.81;5073961;28;20044;-74
2021/12/24 10:34:22;;;;;;;22.20;7.45;;;;;;;8.34;100.00;100365.22;5073911;28;20036;-73
2021/12/24 10:36:55;;;;;;;22.63;7.50;;;;;;;8.39;100.00;100353.22;5073952;28;20042;-73
2021/12/24 10:39:24;;;;;;;21.25;7.95;;;;;;;8.46;100.00;100367.38;5073620;28;20028;-74
2021/12/24 10:41:52;;;;;;;21.20;6.75;;;;;;;8.50;100.00;100363.31;5073537;28;20075;-74
2021/12/24 10:44:30;;;;;;;23.17;9.00;;;;;;;8.51;100.00;100357.81;5073684;28;20104;-75
2021/12/24 10:47:09;;;;;;;24.90;10.13;;;;;;;8.51;100.00;100352.50;5074989;28;20031;-73
2021/12/24 10:54:53;;;;;;;27.73;9.02;;;;;;;8.60;100.00;100357.66;5089663;28;20056;-73
2021/12/24 10:57:24;;;;;;;23.67;8.15;;;;;;;8.59;100.00;100351.50;5087733;28;20031;-72
2021/12/24 10:59:53;;;;;;;26.38;10.35;;;;;;;8.58;100.00;100349.06;5089856;28;20036;-73
2021/12/24 11:02:20;;;;;;;22.00;8.40;;;;;;;8.53;100.00;100342.47;5088207;28;20089;-72
2021/12/24 11:04:46;;;;;;;30.75;11.20;;;;;;;8.49;100.00;100348.41;5085906;28;20123;-72
2021/12/24 11:07:35;;;;;;;25.73;8.82;;;;;;;8.48;100.00;100352.06;5087363;28;20120;-72
2021/12/24 11:10:22;;;;;;;23.85;9.18;;;;;;;8.44;100.00;100353.47;5085833;28;20024;-72
2021/12/24 11:12:59;;;;;;;27.38;9.55;;;;;;;8.44;100.00;100350.81;5089312;28;20427;-73
2021/12/24 11:15:29;;;;;;;24.60;8.90;;;;;;;8.41;100.00;100348.53;5088551;28;20016;-73
2021/12/24 11:17:58;;;;;;;21.08;9.45;;;;;;;8.39;100.00;100356.72;5088849;28;20499;-73
2021/12/24 11:20:24;;;;;;;20.55;9.95;;;;;;;8.32;100.00;100342.53;5088988;28;20093;-73
2021/12/24 11:23:07;;;;;;;24.05;9.63;;;;;;;8.39;100.00;100362.03;5089166;28;20030;-73
2021/12/24 11:25:38;;;;;;;21.85;8.02;;;;;;;8.41;100.00;100361.81;5089239;28;20027;-74
2021/12/24 11:28:06;;;;;;;24.08;9.52;;;;;;;8.44;100.00;100354.31;5088623;28;20032;-73
2021/12/24 11:30:34;;;;;;;36.53;9.45;;;;;;;8.43;100.00;100349.16;5089038;28;20066;-74
2021/12/24 11:33:01;;;;;;;25.60;8.82;;;;;;;8.43;100.00;100355.28;5087529;28;21026;-73
2021/12/24 11:35:28;;;;;;;24.40;8.00;;;;;;;8.44;100.00;100350.81;5089126;28;20054;-74
2021/12/24 11:37:54;;;;;;;21.90;8.30;;;;;;;8.45;100.00;100352.47;5088228;28;20057;-74
2021/12/24 11:40:23;;;;;;;26.42;7.78;;;;;;;8.46;100.00;100356.75;5089000;28;20479;-74
2021/12/24 11:42:58;;;;;;;22.17;9.35;;;;;;;8.48;100.00;100347.56;5089154;28;20460;-74
2021/12/24 11:45:25;;;;;;;24.05;9.07;;;;;;;8.51;100.00;100349.00;5088741;28;20023;-73
2021/12/24 11:47:52;;;;;;;26.88;9.73;;;;;;;8.54;100.00;100345.94;5088942;28;20135;-74
2021/12/24 11:50:18;;;;;;;23.80;8.70;;;;;;;8.56;100.00;100347.41;5088036;28;20070;-73
2021/12/24 11:52:46;;;;;;;25.80;10.73;;;;;;;8.58;100.00;100338.44;5088042;28;20085;-74
2021/12/24 11:55:12;;;;;;;25.70;9.57;;;;;;;8.59;100.00;100332.09;5088827;28;20051;-74
2021/12/24 11:57:59;;;;;;;22.55;9.63;;;;;;;8.60;100.00;100329.25;5088941;28;20443;-74
2021/12/24 12:00:38;;;;;;;25.02;9.25;;;;;;;8.65;100.00;100337.44;5088885;28;20016;-73
2021/12/24 12:03:04;;;;;;;29.63;11.55;;;;;;;8.69;100.00;100336.03;5088589;28;20036;-74
2021/12/24 12:05:35;;;;;;;24.92;10.07;;;;;;;8.72;99.92;100332.16;5089103;28;20031;-73
2021/12/24 12:08:25;;;;;;;27.20;10.57;;;;;;;8.71;99.95;100334.00;5092740;28;20129;-73
2021/12/24 12:10:54;;;;;;;25.85;11.45;;;;;;;8.70;99.99;100318.25;5092638;28;20016;-72
2021/12/24 12:13:47;;;;;;;21.48;9.45;;;;;;;8.75;99.88;100332.59;5092391;28;20032;-72
2021/12/24 12:16:19;;;;;;;24.02;11.07;;;;;;;8.77;99.76;100327.88;5092765;28;20031;-72
2021/12/24 12:18:49;;;;;;;25.20;10.23;;;;;;;8.81;99.89;100319.53;5092738;28;20085;-72
2021/12/24 12:21:44;;;;;;;27.67;10.43;;;;;;;8.84;99.58;100321.78;5092605;28;20017;-72
2021/12/24 12:26:44;;;;;;;27.95;11.05;;;;;;;8.91;98.87;100323.47;5092653;28;20386;-73
2021/12/24 12:29:30;;;;;;;31.27;12.10;;;;;;;8.92;99.23;100322.44;5092744;28;20027;-72
2021/12/24 12:32:16;;;;;;;27.15;11.93;;;;;;;8.90;99.02;100327.13;5092494;28;20032;-73
2021/12/24 12:34:45;;;;;;;28.35;12.13;;;;;;;8.87;98.54;100324.84;5092673;28;20027;-73
2021/12/24 12:37:30;;;;;;;25.20;10.57;;;;;;;8.85;98.77;100331.41;5092575;28;20023;-72
2021/12/24 12:40:03;;;;;;;28.92;12.88;;;;;;;8.84;98.78;100335.09;5092517;28;20470;-73
2021/12/24 12:42:56;;;;;;;25.35;10.85;;;;;;;8.83;99.09;100326.28;5092330;28;20032;-73
2021/12/24 12:45:38;;;;;;;26.10;10.02;;;;;;;8.82;98.97;100334.44;5092493;28;20482;-73
2021/12/24 12:48:06;;;;;;;30.83;13.60;;;;;;;8.79;98.72;100322.38;5092565;28;20428;-73
2021/12/24 12:50:34;;;;;;;26.33;10.90;;;;;;;8.80;99.37;100331.16;5092563;28;20024;-73
2021/12/24 12:53:21;;;;;;;27.80;10.60;;;;;;;8.81;98.87;100330.16;5092377;28;20050;-73
2021/12/24 12:55:46;;;;;;;24.75;12.02;;;;;;;8.79;98.54;100330.34;5092489;28;20035;-73
2021/12/24 12:58:24;;;;;;;27.58;13.52;;;;;;;8.77;98.62;100319.09;5096129;28;20031;-73